In Rescue
 
Open Full Screen Window  High Contrast Mode
Wind Gusting 00 knots
03
August 09, 2020 8:02 PM EDT
Weather Information
Wind Direction
  190 °
Wind Speed
  03 kt (3 mph)
Wind Gust
  00 kt (0 mph)
Altimeter
30.01 in
Visibility
10 SM
Temperature
29° C
84° F
Dewpoint
22° C
72° F
Humidity
66%
1hr Rain Fall
00.00 in.
24hr Rain Fall
00.00 in.
Sky Condition
Clear
VFR

METAR KD95 100002Z AUTO 19003KT 10SM CLR 29/22 A3001 RMK AO2 T02940215

FAA Disclaimer: The data displayed is for advisory purposes only and is not to be used for flight planning or operations.